Time;durP1;ratioP1;P1;durP2;ratioP2;P2;SDS_P1;SDS_P2;PMS_P1;PMS_P2;Temp;Humidity;BMP_temperature;BMP_pressure;BME280_temperature;BME280_humidity;BME280_pressure;Samples;Min_cycle;Max_cycle;Signal;HPM_P1;HPM_P2
2021/08/30 00:00:00;;;;;;;;;8.00;8.00;;;;;23.11;50.58;101178.53;6282223;22;45184;-86
2021/08/30 00:02:28;;;;;;;;;6.50;6.00;;;;;23.06;50.81;101172.47;6256587;22;45727;-86
2021/08/30 00:04:57;;;;;;;;;7.00;6.50;;;;;23.12;49.90;101182.06;6283577;22;45128;-86
2021/08/30 00:07:22;;;;;;;;;6.00;5.25;;;;;23.10;50.30;101184.75;6281260;22;67284;-86
2021/08/30 00:09:51;;;;;;;;;8.75;5.75;;;;;23.10;50.46;101175.88;6283004;22;47427;-86
2021/08/30 00:12:16;;;;;;;;;6.25;5.50;;;;;23.08;50.22;101172.41;6282659;22;45405;-86
2021/08/30 00:14:42;;;;;;;;;6.50;6.50;;;;;23.09;50.60;101169.69;6282759;22;45230;-85
2021/08/30 00:17:08;;;;;;;;;6.75;6.25;;;;;23.12;50.64;101176.72;6282863;22;45181;-85
2021/08/30 00:19:34;;;;;;;;;7.00;5.75;;;;;23.13;50.36;101175.78;6282427;22;45232;-86
2021/08/30 00:22:03;;;;;;;;;5.50;4.75;;;;;23.12;50.66;101177.59;6283079;22;45381;-85
2021/08/30 00:24:28;;;;;;;;;7.75;7.00;;;;;23.12;50.13;101171.41;6282356;22;47024;-86
2021/08/30 00:26:54;;;;;;;;;7.75;7.75;;;;;23.12;50.16;101174.94;6307444;22;59727;-85
2021/08/30 00:29:25;;;;;;;;;7.25;7.25;;;;;23.03;50.23;101161.94;6282136;22;45255;-86
2021/08/30 00:31:59;;;;;;;;;8.00;8.00;;;;;23.10;50.52;101173.22;6283766;22;45400;-85
2021/08/30 00:34:25;;;;;;;;;7.75;6.00;;;;;23.06;50.08;101161.81;6308167;22;48222;-86
2021/08/30 00:36:50;;;;;;;;;8.25;8.25;;;;;23.06;50.71;101166.28;6307617;22;65054;-86
2021/08/30 00:39:19;;;;;;;;;9.00;8.00;;;;;23.05;50.79;101161.88;6282305;22;45269;-85
2021/08/30 00:41:46;;;;;;;;;6.75;6.00;;;;;23.06;50.77;101155.63;6282758;22;45413;-87
2021/08/30 00:44:11;;;;;;;;;9.25;6.75;;;;;23.06;50.81;101156.50;6256370;22;47417;-87
2021/08/30 00:46:37;;;;;;;;;5.75;5.75;;;;;23.06;50.70;101153.84;6308790;22;45163;-86
2021/08/30 00:49:02;;;;;;;;;7.00;6.00;;;;;23.07;50.68;101154.72;6309063;22;45618;-86
2021/08/30 00:51:27;;;;;;;;;9.00;7.25;;;;;23.06;51.11;101156.50;6256261;22;50008;-86
2021/08/30 00:53:53;;;;;;;;;6.50;6.00;;;;;23.01;50.16;101147.78;6281224;22;70042;-86
2021/08/30 00:56:18;;;;;;;;;11.25;10.00;;;;;23.03;50.44;101153.97;6281985;22;45213;-86
2021/08/30 00:58:44;;;;;;;;;6.50;6.25;;;;;23.04;50.93;101160.16;6282080;22;45753;-86
2021/08/30 01:01:10;;;;;;;;;9.00;7.25;;;;;23.02;50.75;101152.22;6256523;22;45658;-86
2021/08/30 01:03:40;;;;;;;;;9.50;9.50;;;;;23.02;50.69;101144.25;6282643;22;45866;-86
2021/08/30 01:06:20;;;;;;;;;6.50;6.50;;;;;22.96;50.40;101144.44;6282619;22;45176;-86
2021/08/30 01:08:52;;;;;;;;;9.25;8.00;;;;;23.02;51.39;101154.88;6282963;22;45327;-86
2021/08/30 01:11:19;;;;;;;;;8.00;7.50;;;;;23.03;50.59;101150.44;6283665;22;45311;-86
2021/08/30 01:13:47;;;;;;;;;8.00;8.00;;;;;23.03;50.67;101145.09;6282123;22;45193;-86
2021/08/30 01:16:13;;;;;;;;;7.50;6.50;;;;;23.05;50.76;101146.78;6256752;22;45339;-86
2021/08/30 01:18:40;;;;;;;;;10.50;8.00;;;;;23.04;50.98;101152.16;6282543;22;45310;-86
2021/08/30 01:21:18;;;;;;;;;9.75;7.25;;;;;23.07;50.54;101146.72;6283054;22;45188;-86
2021/08/30 01:23:49;;;;;;;;;8.25;8.00;;;;;23.03;50.61;101131.78;6307837;22;48235;-86
2021/08/30 01:26:15;;;;;;;;;11.00;7.75;;;;;23.05;50.47;101132.59;6282921;22;45303;-86
2021/08/30 01:28:59;;;;;;;;;8.75;8.00;;;;;23.08;50.44;101138.66;6282581;22;45243;-86
2021/08/30 01:31:34;;;;;;;;;7.00;7.00;;;;;23.04;50.61;101142.38;6285395;22;45444;-86
2021/08/30 01:33:59;;;;;;;;;7.75;7.75;;;;;23.07;51.04;101144.06;6282927;22;47804;-86
2021/08/30 01:36:24;;;;;;;;;7.00;7.00;;;;;23.04;51.20;101144.19;6280455;22;69370;-86
2021/08/30 01:38:50;;;;;;;;;8.25;7.50;;;;;23.03;51.06;101142.44;6282125;22;52038;-86
2021/08/30 01:41:21;;;;;;;;;10.50;8.00;;;;;23.04;51.25;101146.84;6282381;22;45346;-86
2021/08/30 01:43:47;;;;;;;;;9.25;7.00;;;;;23.00;51.19;101137.22;6308321;22;46141;-86
2021/08/30 01:46:13;;;;;;;;;9.00;7.75;;;;;23.01;50.75;101136.28;6280181;22;72183;-87
2021/08/30 01:48:39;;;;;;;;;9.50;9.25;;;;;22.96;51.00;101128.47;6282054;22;45384;-86
2021/08/30 01:51:05;;;;;;;;;8.75;7.25;;;;;23.02;50.95;101128.25;6282254;22;45249;-86
2021/08/30 01:53:30;;;;;;;;;7.25;7.25;;;;;23.05;51.11;101140.59;6307591;22;45290;-86
2021/08/30 01:55:59;;;;;;;;;11.00;10.00;;;;;23.04;51.03;101139.72;6308000;22;45215;-86
2021/08/30 02:00:51;;;;;;;;;10.00;9.00;;;;;23.02;51.22;101138.91;6282015;22;45125;-86
2021/08/30 02:03:21;;;;;;;;;11.75;10.00;;;;;23.06;51.22;101139.66;6256104;22;47718;-86
2021/08/30 02:05:48;;;;;;;;;9.00;9.00;;;;;23.04;51.50;101142.38;6308136;22;45163;-87
2021/08/30 02:08:16;;;;;;;;;12.00;9.00;;;;;23.03;51.60;101135.31;6282439;22;45239;-86
2021/08/30 02:10:46;;;;;;;;;10.75;10.00;;;;;23.02;51.97;101138.91;6257859;22;45431;-86
2021/08/30 02:13:12;;;;;;;;;10.00;10.00;;;;;23.01;51.68;101144.25;6309111;22;46157;-86
2021/08/30 02:15:37;;;;;;;;;11.25;9.75;;;;;22.99;52.13;101143.47;6256848;22;45200;-86
2021/08/30 02:18:06;;;;;;;;;11.75;10.25;;;;;22.93;51.87;101128.56;6309529;22;45444;-87
2021/08/30 02:20:31;;;;;;;;;9.00;9.00;;;;;22.97;52.12;101132.88;6309453;22;45250;-87
2021/08/30 02:22:58;;;;;;;;;10.00;8.50;;;;;22.90;52.23;101120.69;6282730;22;56519;-86
2021/08/30 02:25:23;;;;;;;;;11.00;10.00;;;;;22.96;51.99;101133.81;6283515;22;45269;-86
2021/08/30 02:27:53;;;;;;;;;13.00;10.00;;;;;22.97;51.98;101132.00;6283284;22;45303;-86
2021/08/30 02:30:36;;;;;;;;;10.75;9.50;;;;;22.94;52.05;101134.78;6257839;22;45150;-86
2021/08/30 02:33:04;;;;;;;;;8.00;8.00;;;;;22.89;51.77;101126.94;6309465;22;45203;-86
2021/08/30 02:35:31;;;;;;;;;11.00;9.25;;;;;22.91;52.17;101133.09;6257745;22;45889;-86
2021/08/30 02:37:57;;;;;;;;;7.50;7.50;;;;;22.91;52.23;101134.88;6283054;22;45273;-86
2021/08/30 02:40:24;;;;;;;;;13.50;11.75;;;;;22.89;52.62;101131.41;6282656;22;57064;-86
2021/08/30 02:42:50;;;;;;;;;9.25;9.00;;;;;22.91;52.51;101133.09;6283321;22;45312;-87
2021/08/30 02:45:15;;;;;;;;;9.25;8.50;;;;;22.90;52.37;101134.00;6283464;22;45212;-86
2021/08/30 02:47:40;;;;;;;;;10.25;9.25;;;;;22.90;52.32;101135.81;6283001;22;45164;-86
2021/08/30 02:50:07;;;;;;;;;11.75;11.75;;;;;22.85;52.56;101130.66;6283283;22;48579;-86
2021/08/30 02:52:32;;;;;;;;;13.25;10.00;;;;;22.88;52.72;101125.22;6282494;22;47258;-86
2021/08/30 02:54:58;;;;;;;;;10.00;10.00;;;;;22.91;52.62;101132.22;6257116;22;45225;-86
2021/08/30 02:57:23;;;;;;;;;8.25;8.25;;;;;22.90;52.78;101131.34;6283355;22;45201;-86
2021/08/30 02:59:51;;;;;;;;;10.75;9.75;;;;;22.90;52.30;101130.47;6282738;22;45473;-86
2021/08/30 03:02:16;;;;;;;;;7.50;7.50;;;;;22.91;52.91;101118.91;6257653;22;47994;-86
2021/08/30 03:04:42;;;;;;;;;10.75;9.00;;;;;22.89;53.17;101126.94;6283355;22;45281;-86
2021/08/30 03:07:07;;;;;;;;;11.50;11.50;;;;;22.90;52.48;101126.03;6281844;22;58844;-86
2021/08/30 03:09:33;;;;;;;;;8.75;8.00;;;;;22.93;52.54;101133.03;6282422;22;59462;-86
2021/08/30 03:11:58;;;;;;;;;12.25;10.25;;;;;22.90;52.90;101131.34;6281597;22;47072;-86
2021/08/30 03:14:24;;;;;;;;;11.75;9.75;;;;;22.89;52.48;101126.09;6283502;22;45278;-86
2021/08/30 03:16:51;;;;;;;;;10.25;10.25;;;;;22.86;52.69;101124.41;6257985;22;45241;-86
2021/08/30 03:19:17;;;;;;;;;9.50;7.75;;;;;22.86;52.79;101127.06;6257747;22;45737;-86
2021/08/30 03:21:42;;;;;;;;;11.00;9.00;;;;;22.86;52.72;101127.06;6282270;22;64856;-86
2021/08/30 03:24:08;;;;;;;;;12.00;10.00;;;;;22.84;53.09;101129.75;6257167;22;45709;-86
2021/08/30 03:26:33;;;;;;;;;11.50;7.50;;;;;22.82;53.17;101125.38;6283261;22;45228;-86
2021/08/30 03:28:59;;;;;;;;;11.00;8.00;;;;;22.79;52.90;101121.06;6283067;22;45182;-86
2021/08/30 03:31:27;;;;;;;;;13.00;11.25;;;;;22.80;52.94;101121.91;6282597;22;48128;-86
2021/08/30 03:33:52;;;;;;;;;11.00;9.00;;;;;22.80;53.01;101121.91;6283743;22;45290;-86
2021/08/30 03:36:17;;;;;;;;;9.00;9.00;;;;;22.76;52.91;101115.84;6283326;22;45373;-86
2021/08/30 03:38:43;;;;;;;;;10.75;9.00;;;;;22.81;53.39;101113.00;6309476;22;45315;-86
2021/08/30 03:41:08;;;;;;;;;10.00;9.00;;;;;22.82;53.30;101120.06;6256623;22;48068;-86
2021/08/30 03:43:34;;;;;;;;;9.25;9.00;;;;;22.82;52.95;101114.75;6282973;22;45307;-86
2021/08/30 03:45:59;;;;;;;;;11.00;8.75;;;;;22.79;53.47;101107.75;6282456;22;45180;-86
2021/08/30 03:48:24;;;;;;;;;13.75;10.75;;;;;22.79;53.69;101115.72;6308312;22;62908;-86
2021/08/30 03:50:51;;;;;;;;;11.75;11.25;;;;;22.79;53.17;101114.88;6256600;22;48251;-87
2021/08/30 03:53:17;;;;;;;;;13.75;11.50;;;;;22.81;53.20;101113.00;6256941;22;45136;-86
2021/08/30 03:55:43;;;;;;;;;9.25;9.25;;;;;22.84;53.54;101120.88;6283000;22;45221;-86
2021/08/30 03:58:10;;;;;;;;;9.50;8.00;;;;;22.82;53.61;101114.75;6282556;22;45509;-86
2021/08/30 04:00:35;;;;;;;;;10.25;9.25;;;;;22.82;53.31;101112.09;6282478;22;45124;-86
2021/08/30 04:03:01;;;;;;;;;10.75;9.00;;;;;22.79;54.15;101109.53;6282843;22;50679;-86
2021/08/30 04:05:28;;;;;;;;;14.00;11.25;;;;;22.81;53.42;101113.00;6282820;22;45291;-86
2021/08/30 04:07:55;;;;;;;;;9.25;9.25;;;;;22.79;53.63;101104.22;6283066;22;46070;-86
2021/08/30 04:10:20;;;;;;;;;11.00;11.00;;;;;22.80;53.59;101111.28;6282944;22;45382;-86
2021/08/30 04:12:45;;;;;;;;;12.00;9.25;;;;;22.76;53.42;101097.22;6282068;22;53755;-86
2021/08/30 04:15:11;;;;;;;;;11.00;11.00;;;;;22.73;53.62;101099.97;6308351;22;55562;-86
2021/08/30 04:17:36;;;;;;;;;9.25;8.00;;;;;22.80;53.42;101103.28;6310451;22;45141;-86
2021/08/30 04:20:02;;;;;;;;;10.75;9.00;;;;;22.87;53.37;101109.31;6308235;22;57725;-86
2021/08/30 04:22:27;;;;;;;;;10.25;10.00;;;;;22.84;53.42;101111.13;6282647;22;45198;-86
2021/08/30 04:24:53;;;;;;;;;14.50;12.00;;;;;22.89;53.80;101110.13;6283058;22;45283;-87
2021/08/30 04:27:18;;;;;;;;;11.00;11.00;;;;;22.88;53.98;101111.91;6282246;22;45184;-87
2021/08/30 04:29:44;;;;;;;;;12.50;10.25;;;;;22.90;53.75;101118.03;6282250;22;57685;-87
2021/08/30 04:32:10;;;;;;;;;10.75;9.50;;;;;22.91;53.84;101118.91;6308324;22;45190;-85
2021/08/30 04:34:37;;;;;;;;;11.75;9.75;;;;;22.87;53.95;101115.50;6282645;22;45457;-84
2021/08/30 04:37:02;;;;;;;;;13.00;10.00;;;;;22.92;53.67;101121.50;6282849;22;45359;-84
2021/08/30 04:39:28;;;;;;;;;12.00;9.00;;;;;22.86;53.68;101113.75;6256381;22;47195;-85
2021/08/30 04:41:53;;;;;;;;;12.75;11.75;;;;;22.91;53.74;101114.44;6308366;22;58441;-84
2021/08/30 04:44:19;;;;;;;;;12.50;10.75;;;;;22.87;54.03;101112.84;6308205;22;50893;-84
2021/08/30 04:46:44;;;;;;;;;11.75;9.00;;;;;22.91;54.18;101122.44;6308240;22;51371;-85
2021/08/30 04:49:09;;;;;;;;;15.75;13.75;;;;;22.83;53.77;101109.38;6281811;22;48102;-85
2021/08/30 04:51:35;;;;;;;;;13.50;12.00;;;;;22.86;54.01;101116.44;6310059;22;45269;-85
2021/08/30 04:54:00;;;;;;;;;15.50;13.50;;;;;22.78;54.20;101111.34;6308045;22;45279;-84
2021/08/30 04:56:26;;;;;;;;;11.75;9.50;;;;;22.77;53.68;101111.41;6282063;22;45172;-85
2021/08/30 04:58:51;;;;;;;;;12.25;12.25;;;;;22.83;53.90;101127.13;6281350;22;47101;-84
2021/08/30 05:01:16;;;;;;;;;13.50;13.00;;;;;22.80;54.00;101122.78;6281596;22;56231;-85
2021/08/30 05:03:42;;;;;;;;;14.50;13.25;;;;;22.81;54.41;101123.66;6308881;22;45477;-84
2021/08/30 05:06:07;;;;;;;;;13.50;12.75;;;;;22.78;53.85;101116.66;6281259;22;64204;-85
2021/08/30 05:08:33;;;;;;;;;12.50;11.00;;;;;22.83;54.58;101125.34;6282733;22;46067;-84
2021/08/30 05:11:01;;;;;;;;;13.50;12.75;;;;;22.77;54.63;101119.38;6307933;22;45094;-85
2021/08/30 05:13:27;;;;;;;;;14.50;13.75;;;;;22.78;54.50;101123.78;6283152;22;45448;-86
2021/08/30 05:15:53;;;;;;;;;16.00;12.25;;;;;22.79;54.09;101129.03;6282702;22;45302;-86
2021/08/30 05:18:21;;;;;;;;;12.00;10.25;;;;;22.81;54.49;101135.16;6286689;22;52846;-89
2021/08/30 05:20:50;;;;;;;;;15.50;11.75;;;;;22.75;54.45;101119.41;6283491;22;45232;-90
2021/08/30 05:23:17;;;;;;;;;15.25;14.50;;;;;22.79;56.15;101114.88;6282620;22;45384;-89
2021/08/30 05:25:42;;;;;;;;;17.75;14.00;;;;;22.90;55.71;101123.38;6281914;22;45243;-91
2021/08/30 05:28:07;;;;;;;;;12.25;12.00;;;;;22.96;55.99;101125.81;6283899;22;46847;-89
2021/08/30 05:30:33;;;;;;;;;19.75;17.25;;;;;23.04;55.07;101128.19;6282388;22;45513;-87
2021/08/30 05:32:58;;;;;;;;;20.00;13.25;;;;;23.11;54.98;101130.59;6308373;22;45335;-89
2021/08/30 05:35:27;;;;;;;;;17.50;17.50;;;;;23.13;54.97;101131.41;6282099;22;45755;-91
2021/08/30 05:37:52;;;;;;;;;15.75;15.75;;;;;23.22;54.39;101140.84;6282004;22;47610;-88
2021/08/30 05:40:18;;;;;;;;;16.25;15.00;;;;;23.21;54.70;101127.59;6288043;22;45484;-90
2021/08/30 05:42:43;;;;;;;;;16.00;15.50;;;;;23.24;54.76;101128.34;6283458;22;45144;-85
2021/08/30 05:45:12;;;;;;;;;17.00;14.50;;;;;23.27;55.08;101138.84;6283761;22;47369;-87
2021/08/30 05:47:37;;;;;;;;;13.50;13.00;;;;;23.33;54.97;101137.78;6285141;22;45976;-95
2021/08/30 05:50:04;;;;;;;;;15.75;14.75;;;;;23.35;54.58;101141.25;6263442;22;45252;-93
2021/08/30 05:52:30;;;;;;;;;20.25;17.50;;;;;23.33;54.89;101135.09;6289680;22;45248;-92
2021/08/30 05:54:55;;;;;;;;;13.75;12.75;;;;;23.37;54.87;101134.09;6288308;22;45364;-90
2021/08/30 05:57:21;;;;;;;;;17.50;15.75;;;;;23.41;54.44;101141.03;6286359;22;47784;-88
2021/08/30 05:59:46;;;;;;;;;15.00;12.25;;;;;23.32;54.35;101126.25;6311152;22;45182;-90
2021/08/30 06:02:11;;;;;;;;;19.75;17.00;;;;;23.42;54.41;101153.41;6283930;22;45129;-90
2021/08/30 06:04:37;;;;;;;;;14.50;14.00;;;;;23.32;54.83;101136.03;6283629;22;45413;-87
2021/08/30 06:07:03;;;;;;;;;21.25;18.00;;;;;23.37;54.17;101150.94;6309270;22;47825;-89
2021/08/30 06:09:29;;;;;;;;;18.50;17.50;;;;;23.27;54.01;101138.00;6282898;22;45873;-85
2021/08/30 06:11:55;;;;;;;;;19.00;17.50;;;;;23.22;54.11;101138.19;6283521;22;45200;-90
2021/08/30 06:14:20;;;;;;;;;19.25;18.50;;;;;23.20;54.27;101136.50;6281952;22;45497;-83
2021/08/30 06:16:54;;;;;;;;;18.50;18.00;;;;;23.19;53.76;101142.72;6256931;22;46799;-82
2021/08/30 06:19:20;;;;;;;;;17.75;14.75;;;;;23.13;54.02;101134.06;6284051;22;45232;-84
2021/08/30 06:21:45;;;;;;;;;16.00;13.50;;;;;23.24;54.19;101157.63;6309347;22;45905;-81
2021/08/30 06:24:13;;;;;;;;;20.75;18.25;;;;;23.17;54.41;101148.13;6309312;22;50324;-89
2021/08/30 06:26:39;;;;;;;;;22.50;21.25;;;;;23.22;54.24;101166.59;6281217;22;45402;-89
2021/08/30 06:29:05;;;;;;;;;23.50;20.00;;;;;23.11;54.73;101154.56;6282355;22;45420;-87
2021/08/30 06:31:30;;;;;;;;;24.00;16.75;;;;;23.11;54.65;101157.22;6282519;22;45347;-85
2021/08/30 06:33:56;;;;;;;;;21.50;20.50;;;;;23.16;54.67;101166.81;6309104;22;45204;-83
2021/08/30 06:36:22;;;;;;;;;22.75;18.75;;;;;23.08;54.29;101164.44;6311669;22;45175;-83
2021/08/30 06:38:48;;;;;;;;;24.75;20.50;;;;;23.15;54.54;101176.59;6318085;22;45208;-85
2021/08/30 06:41:13;;;;;;;;;27.00;25.25;;;;;23.06;54.12;101160.97;6282476;22;45459;-84
2021/08/30 06:43:39;;;;;;;;;23.50;20.00;;;;;23.08;53.99;101167.97;6256549;22;45209;-85
2021/08/30 06:46:04;;;;;;;;;24.25;22.00;;;;;23.09;54.13;101160.84;6282246;22;47807;-84
2021/08/30 06:48:30;;;;;;;;;18.50;17.25;;;;;23.15;54.30;101168.63;6282357;22;52712;-81
2021/08/30 06:50:55;;;;;;;;;29.75;25.00;;;;;23.10;53.54;101167.91;6308238;22;45384;-85
2021/08/30 06:53:20;;;;;;;;;25.00;21.75;;;;;23.07;54.28;101166.22;6284484;22;45384;-86
2021/08/30 06:55:46;;;;;;;;;22.75;20.50;;;;;23.03;54.07;101161.94;6282438;22;45853;-84
2021/08/30 06:58:11;;;;;;;;;15.00;13.25;;;;;23.03;54.09;101167.28;6281680;22;57724;-85
2021/08/30 07:00:37;;;;;;;;;26.00;21.25;;;;;22.99;54.44;101156.78;6281241;22;47069;-84
2021/08/30 07:03:02;;;;;;;;;23.25;20.50;;;;;23.05;53.86;101170.75;6308768;22;51214;-83
2021/08/30 07:05:28;;;;;;;;;21.50;21.25;;;;;23.00;53.84;101156.72;6310418;22;46072;-87
2021/08/30 07:07:53;;;;;;;;;24.75;19.25;;;;;23.02;54.39;101165.53;6256805;22;45671;-85
2021/08/30 07:10:21;;;;;;;;;25.00;22.00;;;;;23.03;54.00;101167.28;6282362;22;45261;-84
2021/08/30 07:12:47;;;;;;;;;22.50;21.50;;;;;23.08;54.24;101180.41;6282630;22;45997;-88
2021/08/30 07:15:12;;;;;;;;;23.50;21.50;;;;;23.05;54.20;101175.19;6282571;22;45314;-83
2021/08/30 07:17:38;;;;;;;;;26.25;23.00;;;;;23.00;53.64;101167.34;6255473;22;45260;-83
2021/08/30 07:20:03;;;;;;;;;22.00;18.75;;;;;23.06;53.92;101190.25;6310332;22;45238;-83
2021/08/30 07:22:29;;;;;;;;;23.75;20.75;;;;;22.97;53.74;101178.13;6309661;22;45424;-87
2021/08/30 07:24:54;;;;;;;;;22.75;18.75;;;;;23.02;53.77;101183.28;6257289;22;65875;-86
2021/08/30 07:27:20;;;;;;;;;21.00;17.75;;;;;23.05;54.55;101191.16;6284728;22;45167;-87
2021/08/30 07:29:45;;;;;;;;;21.25;17.75;;;;;22.97;54.13;101178.13;6286386;22;45193;-90
2021/08/30 07:32:10;;;;;;;;;23.00;18.50;;;;;22.97;54.07;101178.13;6261998;22;45289;-86
2021/08/30 07:34:36;;;;;;;;;18.75;16.25;;;;;23.06;54.00;101193.78;6313371;22;46414;-84
2021/08/30 07:37:02;;;;;;;;;22.75;21.50;;;;;23.04;54.19;101190.31;6312808;22;51882;-87
2021/08/30 07:39:27;;;;;;;;;22.00;21.50;;;;;23.06;53.90;101195.56;6284864;22;45311;-85
2021/08/30 07:41:53;;;;;;;;;17.50;16.50;;;;;23.01;54.42;101194.84;6257075;22;45297;-85
2021/08/30 07:44:18;;;;;;;;;20.75;19.00;;;;;23.02;53.71;101191.25;6282231;22;46960;-87
2021/08/30 07:46:44;;;;;;;;;21.25;16.75;;;;;23.02;54.19;101201.91;6312469;22;45199;-90
2021/08/30 07:49:12;;;;;;;;;19.50;16.75;;;;;23.02;53.74;101201.91;6288473;22;45338;-87
2021/08/30 07:51:39;;;;;;;;;24.00;22.00;;;;;23.01;53.91;101201.03;6282733;22;45799;-86
2021/08/30 07:54:05;;;;;;;;;19.00;18.25;;;;;23.06;54.26;101212.41;6311415;22;47329;-88
2021/08/30 07:56:31;;;;;;;;;21.50;18.75;;;;;22.95;53.67;101189.75;6313110;22;45183;-89
2021/08/30 07:58:56;;;;;;;;;24.00;18.75;;;;;23.00;54.81;101196.66;6282071;22;45317;-82
2021/08/30 08:01:22;;;;;;;;;28.50;22.50;;;;;23.11;57.43;101210.47;6282478;22;45357;-80
2021/08/30 08:03:47;;;;;;;;;28.25;26.00;;;;;23.08;57.70;101197.25;6282484;22;45251;-83
2021/08/30 08:06:12;;;;;;;;;26.50;23.50;;;;;23.12;59.07;101201.56;6310135;22;45297;-84
2021/08/30 08:08:41;;;;;;;;;27.50;21.00;;;;;23.16;58.95;101204.09;6310203;22;45269;-82
2021/08/30 08:11:09;;;;;;;;;24.25;23.00;;;;;23.15;58.50;101213.00;6283018;22;45141;-84
2021/08/30 08:13:34;;;;;;;;;26.00;24.00;;;;;23.17;59.28;101212.03;6282219;22;48670;-86
2021/08/30 08:16:00;;;;;;;;;21.00;19.00;;;;;23.21;58.91;101224.31;6308301;22;45199;-83
2021/08/30 08:18:25;;;;;;;;;23.75;21.00;;;;;23.16;58.91;101220.94;6282569;22;45609;-85
2021/08/30 08:20:53;;;;;;;;;22.75;19.75;;;;;23.22;57.64;101222.53;6256657;22;45503;-88
2021/08/30 08:23:18;;;;;;;;;23.00;21.50;;;;;23.18;57.77;101213.75;6282303;22;46081;-87
2021/08/30 08:25:44;;;;;;;;;21.50;19.25;;;;;23.17;57.08;101216.47;6282392;22;45571;-85
2021/08/30 08:28:12;;;;;;;;;22.50;21.75;;;;;23.26;56.06;101232.13;6282811;22;45367;-86
2021/08/30 08:30:38;;;;;;;;;19.75;17.25;;;;;23.16;56.28;101214.75;6308799;22;45413;-86
2021/08/30 08:33:04;;;;;;;;;18.50;17.50;;;;;23.18;55.77;101227.06;6307750;22;47773;-85
2021/08/30 08:35:29;;;;;;;;;19.75;19.50;;;;;23.16;55.77;101220.06;6309067;22;45247;-84
2021/08/30 08:37:55;;;;;;;;;19.75;18.50;;;;;23.16;55.78;101225.41;6283009;22;45280;-83
2021/08/30 08:40:20;;;;;;;;;20.75;18.25;;;;;23.18;55.71;101218.22;6308336;22;45134;-82
2021/08/30 08:42:46;;;;;;;;;20.50;18.25;;;;;23.15;55.16;101221.88;6255737;22;46929;-85
2021/08/30 08:45:14;;;;;;;;;18.75;16.00;;;;;23.25;55.25;101249.91;6282539;22;45362;-80
2021/08/30 08:47:40;;;;;;;;;19.00;17.75;;;;;23.26;55.89;101251.66;6309089;22;45357;-77
2021/08/30 08:50:10;;;;;;;;;18.75;16.50;;;;;23.20;54.01;101240.38;6309906;22;45313;-84
2021/08/30 08:52:39;;;;;;;;;16.25;15.25;;;;;23.18;54.65;101232.41;6282102;22;47158;-86
2021/08/30 08:55:05;;;;;;;;;19.25;17.75;;;;;23.13;53.39;101226.38;6309358;22;45380;-84
2021/08/30 08:57:30;;;;;;;;;16.75;16.75;;;;;23.07;54.32;101224.78;6281902;22;45318;-88
2021/08/30 09:00:09;;;;;;;;;15.75;14.75;;;;;23.19;53.79;101230.59;6281518;22;49726;-86
2021/08/30 09:02:34;;;;;;;;;21.00;18.50;;;;;23.26;53.54;101232.13;6308882;22;45287;-80
2021/08/30 09:05:03;;;;;;;;;15.25;15.25;;;;;23.27;54.01;101237.41;6311560;22;45176;-86
2021/08/30 09:07:41;;;;;;;;;19.50;19.00;;;;;23.17;54.44;101217.34;6285617;22;45277;-80
2021/08/30 09:10:16;;;;;;;;;22.00;19.75;;;;;23.23;54.45;101221.59;6311849;22;45165;-85
2021/08/30 09:12:42;;;;;;;;;18.25;18.00;;;;;23.22;54.79;101223.41;6284096;22;46949;-86
2021/08/30 09:15:11;;;;;;;;;24.75;21.75;;;;;23.31;58.07;101241.72;6281599;22;45263;-81
2021/08/30 09:17:53;;;;;;;;;23.75;21.75;;;;;23.30;57.90;101224.00;6315313;22;45320;-83
2021/08/30 09:20:23;;;;;;;;;19.75;17.50;;;;;23.33;58.41;101225.66;6282243;22;45495;-90
2021/08/30 09:22:48;;;;;;;;;20.00;19.25;;;;;23.35;57.67;101229.13;6284969;22;45393;-91
2021/08/30 09:25:14;;;;;;;;;17.50;17.00;;;;;23.44;54.80;101246.59;6284783;22;45233;-95
2021/08/30 09:27:41;;;;;;;;;21.25;17.25;;;;;23.31;55.66;101230.19;6284366;22;45358;-93
2021/08/30 09:30:11;;;;;;;;;21.00;18.00;;;;;23.33;54.53;101237.19;6283934;22;45878;-89
2021/08/30 09:32:37;;;;;;;;;19.25;16.00;;;;;23.28;54.56;101228.50;6284044;22;47299;-84
2021/08/30 09:35:04;;;;;;;;;17.75;15.75;;;;;23.34;54.23;101235.41;6282272;22;45369;-90
2021/08/30 09:37:35;;;;;;;;;17.25;15.25;;;;;23.38;53.90;101243.25;6285976;22;45359;-93
2021/08/30 09:40:00;;;;;;;;;27.75;26.75;;;;;23.34;54.17;101235.41;6259304;22;45209;-91
2021/08/30 09:42:26;;;;;;;;;23.25;21.50;;;;;23.36;53.73;101238.88;6282314;22;45267;-86
2021/08/30 09:44:54;;;;;;;;;20.75;20.25;;;;;23.37;53.66;101243.31;6282075;22;45386;-84
2021/08/30 09:47:21;;;;;;;;;21.50;17.00;;;;;23.39;53.77;101239.66;6282347;22;45297;-83
2021/08/30 09:49:48;;;;;;;;;17.25;15.50;;;;;23.45;53.15;101243.00;6308003;22;45286;-79
2021/08/30 09:52:13;;;;;;;;;19.50;17.75;;;;;23.43;52.45;101243.06;6308416;22;45180;-79
2021/08/30 09:54:38;;;;;;;;;17.75;17.25;;;;;23.37;53.20;101230.84;6307855;22;45255;-79
2021/08/30 09:57:04;;;;;;;;;17.75;17.75;;;;;23.47;52.63;101242.03;6306790;22;58896;-77
2021/08/30 09:59:30;;;;;;;;;15.00;15.00;;;;;23.47;52.03;101239.38;6307786;22;45619;-80
2021/08/30 10:01:56;;;;;;;;;15.25;15.25;;;;;23.49;51.61;101239.31;6316559;22;45904;-78
2021/08/30 10:04:24;;;;;;;;;17.00;16.00;;;;;23.48;51.61;101240.25;6318757;22;45318;-81
2021/08/30 10:06:50;;;;;;;;;16.25;15.25;;;;;23.42;52.14;101233.34;6316849;22;45284;-82
2021/08/30 10:09:19;;;;;;;;;15.00;15.00;;;;;23.46;51.97;101240.31;6309626;22;45472;-81
2021/08/30 10:11:46;;;;;;;;;16.50;15.25;;;;;23.45;51.46;101238.53;6316463;22;45949;-82
2021/08/30 10:14:27;;;;;;;;;17.50;15.75;;;;;23.44;51.50;101242.13;6295375;22;45388;-80
2021/08/30 10:16:54;;;;;;;;;13.75;11.00;;;;;23.41;51.46;101237.78;6308377;22;45120;-82
2021/08/30 10:19:27;;;;;;;;;15.00;15.00;;;;;23.41;50.99;101235.13;6283496;22;45407;-80
2021/08/30 10:21:53;;;;;;;;;14.25;13.50;;;;;23.38;51.54;101226.38;6281284;22;47742;-82
2021/08/30 10:24:18;;;;;;;;;21.00;17.75;;;;;23.38;51.32;101226.38;6307625;22;45204;-81
2021/08/30 10:26:44;;;;;;;;;16.00;14.50;;;;;23.33;51.01;101215.88;6309298;22;45094;-81
2021/08/30 10:29:13;;;;;;;;;17.50;14.50;;;;;23.38;50.65;101226.38;6282110;22;45241;-82
2021/08/30 10:31:49;;;;;;;;;17.50;13.75;;;;;23.27;50.66;101213.44;6282829;22;47413;-83
2021/08/30 10:34:22;;;;;;;;;14.50;14.25;;;;;23.29;50.94;101216.06;6308657;22;45361;-83
2021/08/30 10:36:48;;;;;;;;;19.00;16.50;;;;;23.32;50.87;101218.59;6309575;22;45262;-83
2021/08/30 10:39:13;;;;;;;;;20.00;16.00;;;;;23.37;50.75;101225.53;6310741;22;45554;-81
2021/08/30 10:41:43;;;;;;;;;17.25;14.75;;;;;23.30;50.66;101226.66;6309451;22;66435;-82
2021/08/30 10:44:27;;;;;;;;;16.25;14.50;;;;;23.29;50.37;101224.06;6283768;22;45292;-82
2021/08/30 10:46:55;;;;;;;;;18.00;14.75;;;;;23.35;51.00;101231.81;6309459;22;45361;-82
2021/08/30 10:49:26;;;;;;;;;18.25;15.25;;;;;23.35;50.31;101229.13;6282602;22;45398;-82
2021/08/30 10:51:51;;;;;;;;;17.00;14.25;;;;;23.31;50.24;101230.19;6310394;22;45286;-82
2021/08/30 10:54:18;;;;;;;;;19.25;17.50;;;;;23.27;50.42;101224.09;6282198;22;45271;-81
2021/08/30 10:56:57;;;;;;;;;14.00;13.00;;;;;23.34;50.41;101235.41;6283213;22;45366;-82
2021/08/30 10:59:27;;;;;;;;;14.25;12.75;;;;;23.29;50.47;101226.72;6308446;22;45220;-81
2021/08/30 11:02:00;;;;;;;;;16.50;14.25;;;;;23.36;50.83;101238.88;6257414;22;47124;-80
2021/08/30 11:04:33;;;;;;;;;16.75;15.00;;;;;23.30;50.88;101224.00;6308792;22;45257;-81
2021/08/30 11:06:59;;;;;;;;;18.00;16.75;;;;;23.28;50.41;101224.94;6309071;22;45275;-82
2021/08/30 11:09:24;;;;;;;;;14.00;12.25;;;;;23.24;50.69;101215.34;6308257;22;45373;-82
2021/08/30 11:11:51;;;;;;;;;15.00;12.50;;;;;23.28;50.12;101225.84;6308452;22;46077;-84
2021/08/30 11:14:17;;;;;;;;;14.75;14.00;;;;;23.33;50.45;101233.66;6256621;22;45229;-83